createdAt,value
2024-01-10T00:00:26.590Z,102888.63
2024-01-10T00:03:13.256Z,102875.13
2024-01-10T00:05:40.200Z,102878.09
2024-01-10T00:08:07.070Z,102885.16
2024-01-10T00:10:33.581Z,102885.53
2024-01-10T00:13:00.351Z,102877.69
2024-01-10T00:15:26.771Z,102875.50
2024-01-10T00:17:53.637Z,102879.91
2024-01-10T00:20:20.103Z,102875.16
2024-01-10T00:22:46.785Z,102863.06
2024-01-10T00:25:13.415Z,102859.47
2024-01-10T00:27:40.027Z,102853.88
2024-01-10T00:30:07.323Z,102848.03
2024-01-10T00:32:34.379Z,102853.09
2024-01-10T00:35:00.875Z,102850.88
2024-01-10T00:37:27.882Z,102841.28
2024-01-10T00:39:54.224Z,102844.56
2024-01-10T00:42:20.969Z,102844.81
2024-01-10T00:44:47.408Z,102844.84
2024-01-10T00:47:14.277Z,102837.53
2024-01-10T00:49:40.730Z,102833.38
2024-01-10T00:52:07.518Z,102839.53
2024-01-10T00:54:33.926Z,102833.03
2024-01-10T00:57:00.589Z,102838.66
2024-01-10T00:59:27.098Z,102830.97
2024-01-10T01:01:54.041Z,102841.97
2024-01-10T01:04:21.210Z,102856.19
2024-01-10T01:06:48.101Z,102853.44
2024-01-10T01:09:15.835Z,102844.81
2024-01-10T01:11:42.690Z,102848.41
2024-01-10T01:14:09.192Z,102857.25
2024-01-10T01:16:35.964Z,102847.59
2024-01-10T01:19:02.361Z,102851.84
2024-01-10T01:21:29.181Z,102846.94
2024-01-10T01:23:55.649Z,102852.59
2024-01-10T01:26:22.363Z,102841.28
2024-01-10T01:28:48.928Z,102846.63
2024-01-10T01:31:15.639Z,102843.13
2024-01-10T01:33:42.092Z,102846.56
2024-01-10T01:36:08.853Z,102847.16
2024-01-10T01:38:36.005Z,102850.13
2024-01-10T01:41:03.364Z,102842.25
2024-01-10T01:43:29.772Z,102839.63
2024-01-10T01:45:57.078Z,102843.53
2024-01-10T01:48:28.007Z,102852.72
2024-01-10T01:50:58.690Z,102843.94
2024-01-10T01:53:25.753Z,102850.09
2024-01-10T01:55:52.961Z,102836.91
2024-01-10T01:58:21.074Z,102844.31
2024-01-10T02:00:47.913Z,102856.41
2024-01-10T02:03:14.558Z,102849.13
2024-01-10T02:05:41.943Z,102843.63
2024-01-10T02:08:09.179Z,102854.50
2024-01-10T02:10:36.101Z,102846.53
2024-01-10T02:13:02.591Z,102843.97
2024-01-10T02:15:29.577Z,102847.19
2024-01-10T02:17:56.402Z,102844.81
2024-01-10T02:20:23.496Z,102847.44
2024-01-10T02:22:50.957Z,102835.88
2024-01-10T02:25:18.272Z,102840.16
2024-01-10T02:27:44.838Z,102840.41
2024-01-10T02:30:12.272Z,102833.41
2024-01-10T02:32:39.288Z,102823.69
2024-01-10T02:35:06.923Z,102828.09
2024-01-10T02:37:33.467Z,102818.28
2024-01-10T02:40:00.513Z,102820.91
2024-01-10T02:42:29.076Z,102817.50
2024-01-10T02:44:55.805Z,102817.03
2024-01-10T02:47:22.506Z,102819.06
2024-01-10T02:49:49.385Z,102815.94
2024-01-10T02:52:16.073Z,102806.38
2024-01-10T02:54:42.881Z,102796.28
2024-01-10T02:57:09.194Z,102798.78
2024-01-10T02:59:35.891Z,102810.75
2024-01-10T03:02:02.390Z,102803.53
2024-01-10T03:04:29.128Z,102794.69
2024-01-10T03:06:55.569Z,102786.81
2024-01-10T03:09:23.210Z,102784.50
2024-01-10T03:11:49.638Z,102784.69
2024-01-10T03:14:16.372Z,102770.75
2024-01-10T03:16:42.961Z,102783.16
2024-01-10T03:19:09.774Z,102778.78
2024-01-10T03:21:36.187Z,102780.56
2024-01-10T03:24:03.057Z,102777.97
2024-01-10T03:26:30.818Z,102796.31
2024-01-10T03:28:57.971Z,102780.44
2024-01-10T03:31:24.528Z,102783.97
2024-01-10T03:33:51.283Z,102799.81
2024-01-10T03:36:18.600Z,102791.13
2024-01-10T03:38:45.944Z,102787.06
2024-01-10T03:41:16.604Z,102792.69
2024-01-10T03:43:43.784Z,102794.00
2024-01-10T03:46:10.981Z,102787.56
2024-01-10T03:48:39.150Z,102796.88
2024-01-10T03:51:05.571Z,102792.56
2024-01-10T03:53:32.300Z,102797.81
2024-01-10T03:55:58.876Z,102790.50
2024-01-10T03:58:26.902Z,102790.78
2024-01-10T04:00:53.392Z,102801.75
2024-01-10T04:03:20.150Z,102801.66
2024-01-10T04:05:46.681Z,102787.28
2024-01-10T04:08:15.141Z,102787.28
2024-01-10T04:10:42.829Z,102792.41
2024-01-10T04:13:09.490Z,102785.41
2024-01-10T04:15:35.896Z,102778.59
2024-01-10T04:18:03.315Z,102779.63
2024-01-10T04:20:30.191Z,102781.44
2024-01-10T04:22:56.919Z,102777.09
2024-01-10T04:25:23.376Z,102792.03
2024-01-10T04:27:50.729Z,102787.09
2024-01-10T04:30:17.267Z,102794.53
2024-01-10T04:32:43.765Z,102787.47
2024-01-10T04:35:10.677Z,102780.50
2024-01-10T04:37:37.424Z,102792.00
2024-01-10T04:40:06.783Z,102795.53
2024-01-10T04:42:35.209Z,102791.03
2024-01-10T04:45:02.114Z,102789.31
2024-01-10T04:47:28.768Z,102788.38
2024-01-10T04:49:55.588Z,102785.84
2024-01-10T04:52:22.755Z,102784.97
2024-01-10T04:54:50.488Z,102782.31
2024-01-10T04:57:18.082Z,102782.25
2024-01-10T04:59:45.110Z,102786.72
2024-01-10T05:02:12.082Z,102785.84
2024-01-10T05:04:38.800Z,102776.38
2024-01-10T05:07:05.256Z,102772.44
2024-01-10T05:09:32.156Z,102777.16
2024-01-10T05:11:58.597Z,102781.69
2024-01-10T05:14:25.369Z,102769.47
2024-01-10T05:16:54.016Z,102772.16
2024-01-10T05:19:20.782Z,102766.28
2024-01-10T05:21:47.401Z,102761.53
2024-01-10T05:24:14.259Z,102761.72
2024-01-10T05:26:40.622Z,102761.72
2024-01-10T05:29:08.214Z,102753.94
2024-01-10T05:31:34.589Z,102753.19
2024-01-10T05:34:01.426Z,102752.34
2024-01-10T05:36:27.926Z,102758.63
2024-01-10T05:38:55.329Z,102758.63
2024-01-10T05:41:22.992Z,102756.16
2024-01-10T05:43:50.635Z,102757.31
2024-01-10T05:46:17.374Z,102753.41
2024-01-10T05:48:44.713Z,102759.16
2024-01-10T05:51:11.256Z,102753.59
2024-01-10T05:53:38.046Z,102747.28
2024-01-10T05:56:06.782Z,102755.94
2024-01-10T05:58:33.702Z,102754.00
2024-01-10T06:01:00.861Z,102755.31
2024-01-10T06:03:28.924Z,102748.00
2024-01-10T06:05:55.796Z,102739.91
2024-01-10T06:08:26.003Z,102744.78
2024-01-10T06:10:53.046Z,102745.47
2024-01-10T06:13:19.824Z,102746.44
2024-01-10T06:15:46.657Z,102738.03
2024-01-10T06:18:13.804Z,102745.88
2024-01-10T06:20:40.376Z,102739.81
2024-01-10T06:23:07.493Z,102744.06
2024-01-10T06:25:33.954Z,102743.34
2024-01-10T06:28:01.084Z,102745.31
2024-01-10T06:30:27.949Z,102735.59
2024-01-10T06:32:55.809Z,102738.28
2024-01-10T06:35:22.631Z,102733.69
2024-01-10T06:37:49.784Z,102736.56
2024-01-10T06:40:16.846Z,102734.84
2024-01-10T06:42:43.834Z,102734.63
2024-01-10T06:45:12.230Z,102734.00
2024-01-10T06:47:39.266Z,102740.53
2024-01-10T06:50:06.713Z,102733.13
2024-01-10T06:52:33.568Z,102731.81
2024-01-10T06:54:59.888Z,102736.22
2024-01-10T06:57:27.298Z,102729.91
2024-01-10T06:59:53.713Z,102735.88
2024-01-10T07:02:20.706Z,102734.69
2024-01-10T07:04:48.694Z,102732.78
2024-01-10T07:07:17.549Z,102736.53
2024-01-10T07:09:43.923Z,102738.41
2024-01-10T07:12:10.659Z,102733.09
2024-01-10T07:14:37.350Z,102736.59
2024-01-10T07:17:04.354Z,102735.75
2024-01-10T07:19:31.729Z,102735.78
2024-01-10T07:21:58.443Z,102718.72
2024-01-10T07:24:24.790Z,102730.81
2024-01-10T07:26:51.862Z,102730.84
2024-01-10T07:29:19.588Z,102734.47
2024-01-10T07:31:46.445Z,102740.00
2024-01-10T07:34:12.829Z,102735.66
2024-01-10T07:36:43.312Z,102743.59
2024-01-10T07:39:10.410Z,102743.66
2024-01-10T07:41:37.408Z,102738.38
2024-01-10T07:44:04.016Z,102735.78
2024-01-10T07:46:30.796Z,102737.50
2024-01-10T07:48:57.231Z,102731.19
2024-01-10T07:51:24.177Z,102737.81
2024-01-10T07:53:50.548Z,102730.53
2024-01-10T07:56:17.435Z,102728.56
2024-01-10T07:58:43.866Z,102731.94
2024-01-10T08:01:11.506Z,102722.28
2024-01-10T08:03:38.153Z,102722.13
2024-01-10T08:06:06.920Z,102725.56
2024-01-10T08:08:35.222Z,102726.94
2024-01-10T08:11:02.001Z,102733.59
2024-01-10T08:13:28.668Z,102739.09
2024-01-10T08:15:55.732Z,102740.06
2024-01-10T08:18:22.526Z,102740.16
2024-01-10T08:20:49.346Z,102741.06
2024-01-10T08:23:15.817Z,102742.84
2024-01-10T08:25:44.673Z,102738.38
2024-01-10T08:28:11.144Z,102738.38
2024-01-10T08:30:37.918Z,102736.63
2024-01-10T08:33:05.437Z,102749.88
2024-01-10T08:35:32.797Z,102743.66
2024-01-10T08:37:59.645Z,102747.13
2024-01-10T08:40:27.648Z,102746.31
2024-01-10T08:42:54.259Z,102756.88
2024-01-10T08:45:21.675Z,102768.38
2024-01-10T08:47:48.171Z,102762.16
2024-01-10T08:50:14.935Z,102763.03
2024-01-10T08:52:41.549Z,102766.56
2024-01-10T08:55:12.155Z,102769.19
2024-01-10T08:57:40.411Z,102776.22
2024-01-10T09:00:07.881Z,102775.28
2024-01-10T09:02:37.184Z,102786.69
2024-01-10T09:05:04.629Z,102785.81
2024-01-10T09:07:31.336Z,102787.47
2024-01-10T09:09:58.602Z,102780.41
2024-01-10T09:12:25.169Z,102775.88
2024-01-10T09:14:52.122Z,102778.66
2024-01-10T09:17:18.597Z,102771.66
2024-01-10T09:19:45.479Z,102774.41
2024-01-10T09:22:12.089Z,102773.56
2024-01-10T09:24:41.835Z,102768.28
2024-01-10T09:27:09.747Z,102762.13
2024-01-10T09:29:36.473Z,102766.44
2024-01-10T09:32:03.812Z,102767.19
2024-01-10T09:34:31.077Z,102769.09
2024-01-10T09:36:57.586Z,102759.44
2024-01-10T09:39:24.557Z,102756.41
2024-01-10T09:41:53.026Z,102758.19
2024-01-10T09:44:21.881Z,102753.69
2024-01-10T09:46:55.756Z,102747.59
2024-01-10T09:49:22.716Z,102746.75
2024-01-10T09:51:49.797Z,102745.81
2024-01-10T09:54:17.086Z,102744.19
2024-01-10T09:56:43.730Z,102737.69
2024-01-10T09:59:11.263Z,102730.72
2024-01-10T10:01:39.572Z,102739.38
2024-01-10T10:04:09.925Z,102735.53
2024-01-10T10:06:36.588Z,102737.97
2024-01-10T10:09:04.580Z,102738.53
2024-01-10T10:11:33.087Z,102726.31
2024-01-10T10:14:15.369Z,102731.00
2024-01-10T10:16:41.885Z,102733.72
2024-01-10T10:19:10.078Z,102731.78
2024-01-10T10:21:36.557Z,102729.59
2024-01-10T10:24:07.631Z,102728.47
2024-01-10T10:26:35.203Z,102728.72
2024-01-10T10:29:03.310Z,102722.38
2024-01-10T10:31:31.575Z,102721.63
2024-01-10T10:34:01.478Z,102728.38
2024-01-10T10:36:28.005Z,102723.50
2024-01-10T10:38:54.712Z,102716.34
2024-01-10T10:41:22.066Z,102718.81
2024-01-10T10:43:50.594Z,102713.75
2024-01-10T10:46:17.205Z,102710.81
2024-01-10T10:48:44.531Z,102700.97
2024-01-10T10:51:12.400Z,102710.00
2024-01-10T10:53:44.169Z,102693.44
2024-01-10T10:56:12.401Z,102696.44
2024-01-10T10:58:46.517Z,102685.25
2024-01-10T11:01:14.797Z,102681.75
2024-01-10T11:03:47.674Z,102677.88
2024-01-10T11:06:14.802Z,102673.09
2024-01-10T11:08:51.185Z,102670.38
2024-01-10T11:11:37.777Z,102670.13
2024-01-10T11:14:23.040Z,102673.63
2024-01-10T11:17:12.433Z,102664.00
2024-01-10T11:19:54.026Z,102665.44
2024-01-10T11:22:26.626Z,102666.09
2024-01-10T11:24:53.670Z,102673.06
2024-01-10T11:27:20.186Z,102669.41
2024-01-10T11:29:47.998Z,102663.59
2024-01-10T11:32:18.924Z,102659.09
2024-01-10T11:34:55.120Z,102660.06
2024-01-10T11:37:21.684Z,102655.25
2024-01-10T11:39:48.419Z,102655.25
2024-01-10T11:42:40.945Z,102651.41
2024-01-10T11:45:08.755Z,102651.34
2024-01-10T11:47:39.033Z,102654.53
2024-01-10T11:50:08.049Z,102646.88
2024-01-10T11:52:36.913Z,102650.13
2024-01-10T11:55:05.480Z,102657.19
2024-01-10T11:57:35.563Z,102648.06
2024-01-10T12:00:05.838Z,102656.81
2024-01-10T12:02:32.973Z,102649.38
2024-01-10T12:04:59.874Z,102647.75
2024-01-10T12:07:27.913Z,102631.88
2024-01-10T12:09:55.363Z,102635.22
2024-01-10T12:12:21.790Z,102632.63
2024-01-10T12:14:48.554Z,102628.47
2024-01-10T12:17:15.143Z,102629.56
2024-01-10T12:19:45.405Z,102618.56
2024-01-10T12:22:11.940Z,102609.22
2024-01-10T12:24:48.638Z,102617.50
2024-01-10T12:27:18.480Z,102605.63
2024-01-10T12:29:48.928Z,102601.34
2024-01-10T12:32:19.246Z,102601.66
2024-01-10T12:34:46.501Z,102605.56
2024-01-10T12:37:13.161Z,102593.13
2024-01-10T12:39:41.126Z,102595.47
2024-01-10T12:42:09.936Z,102592.47
2024-01-10T12:44:37.121Z,102592.38
2024-01-10T12:47:04.133Z,102587.97
2024-01-10T12:49:31.359Z,102594.16
2024-01-10T12:51:58.274Z,102590.13
2024-01-10T12:54:25.239Z,102587.03
2024-01-10T12:56:52.737Z,102596.59
2024-01-10T12:59:19.506Z,102597.03
2024-01-10T13:01:46.322Z,102589.88
2024-01-10T13:04:13.200Z,102602.78
2024-01-10T13:06:40.897Z,102599.69
2024-01-10T13:09:08.053Z,102594.72
2024-01-10T13:11:34.802Z,102591.22
2024-01-10T13:14:01.991Z,102585.25
2024-01-10T13:16:29.050Z,102589.91
2024-01-10T13:18:58.090Z,102573.63
2024-01-10T13:21:25.309Z,102581.41
2024-01-10T13:23:52.384Z,102578.88
2024-01-10T13:26:19.647Z,102577.53
2024-01-10T13:28:46.961Z,102578.44
2024-01-10T13:31:14.766Z,102579.88
2024-01-10T13:33:46.853Z,102570.84
2024-01-10T13:36:14.955Z,102575.94
2024-01-10T13:38:41.986Z,102571.91
2024-01-10T13:41:09.544Z,102565.38
2024-01-10T13:43:36.784Z,102564.09
2024-01-10T13:46:07.346Z,102552.16
2024-01-10T13:48:36.927Z,102560.41
2024-01-10T13:51:03.745Z,102556.72
2024-01-10T13:53:31.032Z,102555.19
2024-01-10T13:55:57.967Z,102561.72
2024-01-10T13:58:25.543Z,102556.75
2024-01-10T14:00:52.753Z,102558.06
2024-01-10T14:03:19.681Z,102555.63
2024-01-10T14:05:47.175Z,102552.84
2024-01-10T14:08:13.937Z,102557.00
2024-01-10T14:10:42.353Z,102552.16
2024-01-10T14:13:09.026Z,102546.53
2024-01-10T14:15:36.140Z,102542.09
2024-01-10T14:18:03.436Z,102553.06
2024-01-10T14:20:30.632Z,102550.34
2024-01-10T14:22:58.109Z,102544.53
2024-01-10T14:25:25.261Z,102550.25
2024-01-10T14:27:53.177Z,102546.03
2024-01-10T14:30:20.196Z,102531.28
2024-01-10T14:32:48.085Z,102534.84
2024-01-10T14:35:16.011Z,102539.47
2024-01-10T14:37:43.257Z,102534.31
2024-01-10T14:40:11.590Z,102531.59
2024-01-10T14:42:38.764Z,102527.09
2024-01-10T14:45:06.409Z,102516.47
2024-01-10T14:47:33.322Z,102519.66
2024-01-10T14:50:00.692Z,102508.03
2024-01-10T14:52:27.958Z,102514.03
2024-01-10T14:54:55.234Z,102520.47
2024-01-10T14:57:22.356Z,102522.50
2024-01-10T14:59:49.601Z,102514.03
2024-01-10T15:02:19.228Z,102521.38
2024-01-10T15:04:47.141Z,102517.94
2024-01-10T15:07:14.992Z,102523.75
2024-01-10T15:09:43.871Z,102533.44
2024-01-10T15:12:11.052Z,102533.44
2024-01-10T15:14:41.849Z,102530.47
2024-01-10T15:17:10.204Z,102535.75
2024-01-10T15:19:38.497Z,102544.19
2024-01-10T15:22:06.504Z,102546.22
2024-01-10T15:24:33.945Z,102544.50
2024-01-10T15:27:09.147Z,102552.13
2024-01-10T15:29:37.269Z,102544.91
2024-01-10T15:32:05.228Z,102545.97
2024-01-10T15:34:32.628Z,102553.34
2024-01-10T15:36:59.516Z,102545.53
2024-01-10T15:39:26.655Z,102547.13
2024-01-10T15:41:53.485Z,102544.47
2024-01-10T15:44:22.098Z,102543.69
2024-01-10T15:46:50.367Z,102545.84
2024-01-10T15:49:18.756Z,102539.44
2024-01-10T15:51:46.192Z,102545.25
2024-01-10T15:54:13.687Z,102537.25
2024-01-10T15:56:41.970Z,102535.34
2024-01-10T15:59:09.776Z,102535.69
2024-01-10T16:01:37.005Z,102535.75
2024-01-10T16:04:04.688Z,102543.38
2024-01-10T16:06:33.267Z,102531.41
2024-01-10T16:09:01.433Z,102525.78
2024-01-10T16:11:28.080Z,102524.25
2024-01-10T16:13:55.278Z,102521.88
2024-01-10T16:16:30.835Z,102527.75
2024-01-10T16:18:59.291Z,102517.69
2024-01-10T16:21:26.781Z,102529.44
2024-01-10T16:23:53.833Z,102524.22
2024-01-10T16:26:20.343Z,102523.94
2024-01-10T16:28:49.074Z,102519.00
2024-01-10T16:31:17.265Z,102515.66
2024-01-10T16:33:44.341Z,102517.00
2024-01-10T16:36:10.876Z,102516.28
2024-01-10T16:38:38.526Z,102515.75
2024-01-10T16:41:04.997Z,102506.91
2024-01-10T16:43:32.054Z,102497.50
2024-01-10T16:45:58.681Z,102499.59
2024-01-10T16:48:26.232Z,102499.53
2024-01-10T16:50:55.264Z,102505.97
2024-01-10T16:53:22.168Z,102490.69
2024-01-10T16:55:51.903Z,102487.78
2024-01-10T16:58:19.039Z,102492.53
2024-01-10T17:00:45.870Z,102482.94
2024-01-10T17:03:13.115Z,102483.59
2024-01-10T17:05:44.185Z,102476.56
2024-01-10T17:08:12.136Z,102472.00
2024-01-10T17:10:38.903Z,102465.88
2024-01-10T17:13:05.966Z,102469.16
2024-01-10T17:15:33.146Z,102461.75
2024-01-10T17:18:00.836Z,102462.66
2024-01-10T17:20:27.436Z,102469.72
2024-01-10T17:22:55.060Z,102466.78
2024-01-10T17:25:23.675Z,102460.81
2024-01-10T17:27:50.942Z,102459.06
2024-01-10T17:30:17.784Z,102462.97
2024-01-10T17:32:45.455Z,102463.34
2024-01-10T17:35:16.281Z,102443.50
2024-01-10T17:37:44.994Z,102450.28
2024-01-10T17:40:11.964Z,102452.25
2024-01-10T17:42:39.188Z,102452.16
2024-01-10T17:45:07.355Z,102449.06
2024-01-10T17:47:35.024Z,102446.00
2024-01-10T17:50:02.186Z,102440.13
2024-01-10T17:52:29.850Z,102441.91
2024-01-10T17:54:56.979Z,102443.91
2024-01-10T17:57:27.289Z,102437.69
2024-01-10T17:59:54.702Z,102436.69
2024-01-10T18:02:22.066Z,102437.38
2024-01-10T18:04:50.342Z,102439.84
2024-01-10T18:07:17.875Z,102433.81
2024-01-10T18:09:44.979Z,102437.78
2024-01-10T18:12:12.105Z,102433.34
2024-01-10T18:14:39.495Z,102432.78
2024-01-10T18:17:07.044Z,102437.81
2024-01-10T18:19:34.393Z,102441.03
2024-01-10T18:22:01.612Z,102442.47
2024-01-10T18:24:28.372Z,102440.84
2024-01-10T18:26:55.805Z,102446.31
2024-01-10T18:29:23.362Z,102446.56
2024-01-10T18:31:50.378Z,102445.66
2024-01-10T18:34:17.302Z,102450.50
2024-01-10T18:36:44.749Z,102442.56
2024-01-10T18:39:13.172Z,102447.28
2024-01-10T18:41:41.617Z,102440.41
2024-01-10T18:44:09.117Z,102439.53
2024-01-10T18:46:41.948Z,102435.97
2024-01-10T18:49:09.074Z,102435.16
2024-01-10T18:51:36.502Z,102425.59
2024-01-10T18:54:03.834Z,102433.25
2024-01-10T18:56:31.366Z,102432.22
2024-01-10T18:58:58.757Z,102437.19
2024-01-10T19:01:26.107Z,102433.84
2024-01-10T19:03:54.215Z,102437.28
2024-01-10T19:06:21.341Z,102441.31
2024-01-10T19:08:48.633Z,102438.34
2024-01-10T19:11:15.681Z,102434.63
2024-01-10T19:13:42.935Z,102445.81
2024-01-10T19:16:10.730Z,102434.75
2024-01-10T19:18:37.436Z,102438.53
2024-01-10T19:21:05.346Z,102439.88
2024-01-10T19:23:32.427Z,102438.38
2024-01-10T19:25:59.735Z,102447.69
2024-01-10T19:28:27.685Z,102448.72
2024-01-10T19:30:59.128Z,102446.50
2024-01-10T19:33:26.544Z,102445.53
2024-01-10T19:35:54.251Z,102446.13
2024-01-10T19:38:24.122Z,102452.63
2024-01-10T19:40:51.569Z,102452.06
2024-01-10T19:43:26.991Z,102455.59
2024-01-10T19:45:54.603Z,102447.00
2024-01-10T19:48:21.593Z,102453.47
2024-01-10T19:50:50.017Z,102452.63
2024-01-10T19:53:20.674Z,102447.16
2024-01-10T19:55:48.416Z,102445.72
2024-01-10T19:58:15.219Z,102451.03
2024-01-10T20:00:42.954Z,102452.91
2024-01-10T20:03:09.492Z,102465.22
2024-01-10T20:05:37.972Z,102455.25
2024-01-10T20:08:04.939Z,102447.66
2024-01-10T20:10:33.083Z,102433.75
2024-01-10T20:12:59.961Z,102438.25
2024-01-10T20:15:26.944Z,102445.31
2024-01-10T20:17:54.833Z,102448.91
2024-01-10T20:20:22.628Z,102440.25
2024-01-10T20:22:49.382Z,102438.47
2024-01-10T20:25:16.620Z,102434.53
2024-01-10T20:27:43.258Z,102442.50
2024-01-10T20:30:10.700Z,102440.09
2024-01-10T20:32:39.122Z,102438.00
2024-01-10T20:35:09.547Z,102429.41
2024-01-10T20:37:36.450Z,102422.47
2024-01-10T20:40:05.054Z,102425.16
2024-01-10T20:42:32.544Z,102423.38
2024-01-10T20:45:00.419Z,102427.84
2024-01-10T20:47:30.438Z,102428.75
2024-01-10T20:49:59.166Z,102425.22
2024-01-10T20:52:26.407Z,102417.34
2024-01-10T20:54:53.634Z,102410.31
2024-01-10T20:57:20.619Z,102415.56
2024-01-10T20:59:48.418Z,102419.00
2024-01-10T21:02:15.206Z,102413.44
2024-01-10T21:04:42.171Z,102421.38
2024-01-10T21:07:13.419Z,102410.16
2024-01-10T21:09:44.125Z,102412.47
2024-01-10T21:12:12.507Z,102411.66
2024-01-10T21:14:43.841Z,102401.28
2024-01-10T21:17:11.968Z,102392.59
2024-01-10T21:19:39.216Z,102382.84
2024-01-10T21:22:06.078Z,102388.94
2024-01-10T21:24:37.193Z,102402.34
2024-01-10T21:27:04.605Z,102401.03
2024-01-10T21:29:31.584Z,102399.53
2024-01-10T21:31:58.246Z,102399.03
2024-01-10T21:34:25.164Z,102402.25
2024-01-10T21:36:51.928Z,102403.75
2024-01-10T21:39:18.883Z,102405.31
2024-01-10T21:41:45.704Z,102394.09
2024-01-10T21:44:13.755Z,102394.53
2024-01-10T21:46:40.337Z,102391.31
2024-01-10T21:49:07.682Z,102384.31
2024-01-10T21:51:34.298Z,102379.31
2024-01-10T21:54:01.229Z,102383.38
2024-01-10T21:56:27.715Z,102372.25
2024-01-10T21:58:54.623Z,102366.19
2024-01-10T22:01:21.255Z,102377.47
2024-01-10T22:03:50.422Z,102367.91
2024-01-10T22:06:17.000Z,102358.31
2024-01-10T22:08:44.502Z,102360.97
2024-01-10T22:11:12.100Z,102353.56
2024-01-10T22:13:38.963Z,102347.72
2024-01-10T22:16:07.439Z,102332.81
2024-01-10T22:18:34.558Z,102349.78
2024-01-10T22:21:01.233Z,102351.88
2024-01-10T22:23:28.206Z,102360.31
2024-01-10T22:25:56.373Z,102346.28
2024-01-10T22:28:23.469Z,102347.41
2024-01-10T22:30:51.010Z,102341.16
2024-01-10T22:33:20.093Z,102345.44
2024-01-10T22:35:47.437Z,102354.50
2024-01-10T22:38:14.261Z,102354.28
2024-01-10T22:40:40.800Z,102358.88
2024-01-10T22:43:07.499Z,102358.56
2024-01-10T22:45:33.992Z,102353.50
2024-01-10T22:48:00.910Z,102343.88
2024-01-10T22:50:27.515Z,102339.47
2024-01-10T22:52:55.869Z,102351.03
2024-01-10T22:55:22.367Z,102353.78
2024-01-10T22:57:51.758Z,102349.41
2024-01-10T23:00:21.966Z,102349.44
2024-01-10T23:02:49.563Z,102355.66
2024-01-10T23:05:16.349Z,102349.47
2024-01-10T23:07:43.364Z,102351.25
2024-01-10T23:10:10.141Z,102342.47
2024-01-10T23:12:36.990Z,102344.22
2024-01-10T23:15:03.825Z,102339.75
2024-01-10T23:17:30.765Z,102336.22
2024-01-10T23:19:57.521Z,102337.88
2024-01-10T23:22:24.405Z,102336.06
2024-01-10T23:24:51.105Z,102334.19
2024-01-10T23:27:18.181Z,102335.03
2024-01-10T23:29:44.744Z,102326.22
2024-01-10T23:32:11.949Z,102315.63
2024-01-10T23:34:39.137Z,102310.34
2024-01-10T23:37:09.497Z,102308.47
2024-01-10T23:39:36.312Z,102289.19
2024-01-10T23:42:03.797Z,102290.03
2024-01-10T23:44:30.410Z,102273.28
2024-01-10T23:46:57.597Z,102269.66
2024-01-10T23:49:24.197Z,102266.22
2024-01-10T23:51:51.392Z,102256.56
2024-01-10T23:54:18.530Z,102245.97
2024-01-10T23:56:45.196Z,102246.03
2024-01-10T23:59:11.555Z,102234.44
